Time,TemperatureF,DewpointF,PressureIn,WindDirection,WindDirectionDegrees,WindSpeedMPH,WindSpeedGustMPH,Humidity,HourlyPrecipIn,Conditions,Clouds,dailyrainin,SolarRadiationWatts/m^2,SoftwareType,DateUTC
2013-03-29 00:02:00,39.0,27.0,-100.00,NNW,329,6.0,10.0,62,0.00,,,-99.99,0.000000,,2013-03-29 06:02:00,
2013-03-29 00:12:00,39.0,27.0,-100.00,NNW,329,6.0,10.0,62,0.00,,,-99.99,0.000000,,2013-03-29 06:12:00,
2013-03-29 00:42:00,39.0,26.0,-100.00,NNW,328,7.0,9.0,60,0.00,,,-99.99,0.000000,,2013-03-29 06:42:00,
2013-03-29 00:52:00,39.0,26.0,-100.00,NNW,328,7.0,9.0,60,0.00,,,-99.99,0.000000,,2013-03-29 06:52:00,
2013-03-29 01:03:00,39.0,26.0,-100.00,NNW,328,7.0,9.0,60,0.00,,,-99.99,0.000000,,2013-03-29 07:03:00,
2013-03-29 01:12:00,39.0,26.0,-100.00,NNW,328,7.0,9.0,60,0.00,,,-99.99,0.000000,,2013-03-29 07:12:00,
2013-03-29 01:42:00,39.0,26.0,-100.00,NNW,331,2.0,7.0,59,0.00,,,-99.99,0.000000,,2013-03-29 07:42:00,
2013-03-29 01:52:00,39.0,26.0,-100.00,NNW,331,2.0,7.0,59,0.00,,,-99.99,0.000000,,2013-03-29 07:52:00,
2013-03-29 02:02:00,39.0,26.0,-100.00,NNW,331,2.0,7.0,59,0.00,,,-99.99,0.000000,,2013-03-29 08:02:00,
2013-03-29 02:12:00,39.0,26.0,-100.00,NNW,331,2.0,7.0,59,0.00,,,-99.99,0.000000,,2013-03-29 08:12:00,
2013-03-29 02:42:00,41.0,26.0,-100.00,NW,304,2.0,4.0,54,0.00,,,-99.99,0.000000,,2013-03-29 08:42:00,
2013-03-29 02:53:00,41.0,26.0,-100.00,NW,304,2.0,4.0,54,0.00,,,-99.99,0.000000,,2013-03-29 08:53:00,
2013-03-29 03:02:00,41.0,26.0,-100.00,NW,304,2.0,4.0,54,0.00,,,-99.99,0.000000,,2013-03-29 09:02:00,
2013-03-29 03:13:00,41.0,26.0,-100.00,NW,304,2.0,4.0,54,0.00,,,-99.99,0.000000,,2013-03-29 09:13:00,
2013-03-29 03:43:00,37.0,25.0,-100.00,NNW,332,3.0,7.0,61,0.00,,,-99.99,0.000000,,2013-03-29 09:43:00,
2013-03-29 03:52:00,37.0,25.0,-100.00,NNW,332,3.0,7.0,61,0.00,,,-99.99,0.000000,,2013-03-29 09:52:00,
2013-03-29 04:03:00,37.0,25.0,-100.00,NNW,332,3.0,7.0,61,0.00,,,-99.99,0.000000,,2013-03-29 10:03:00,
2013-03-29 04:12:00,37.0,25.0,-100.00,NNW,332,3.0,7.0,61,0.00,,,-99.99,0.000000,,2013-03-29 10:12:00,
2013-03-29 04:42:00,38.0,25.0,-100.00,NNW,342,8.0,9.0,59,0.00,,,-99.99,0.000000,,2013-03-29 10:42:00,
2013-03-29 04:53:00,38.0,25.0,-100.00,NNW,342,8.0,9.0,59,0.00,,,-99.99,0.000000,,2013-03-29 10:53:00,
2013-03-29 05:03:00,38.0,25.0,-100.00,NNW,342,8.0,9.0,59,0.00,,,-99.99,0.000000,,2013-03-29 11:03:00,
2013-03-29 05:12:00,38.0,25.0,-100.00,NNW,342,8.0,9.0,59,0.00,,,-99.99,0.000000,,2013-03-29 11:12:00,
2013-03-29 05:43:00,38.0,25.0,-100.00,NW,326,2.0,9.0,60,0.00,,,-99.99,0.000000,,2013-03-29 11:43:00,
2013-03-29 05:53:00,38.0,25.0,-100.00,NW,326,2.0,9.0,60,0.00,,,-99.99,0.000000,,2013-03-29 11:53:00,
2013-03-29 06:03:00,38.0,25.0,-100.00,NW,326,2.0,9.0,60,0.00,,,-99.99,0.000000,,2013-03-29 12:03:00,
2013-03-29 06:12:00,38.0,25.0,-100.00,NW,326,2.0,9.0,60,0.00,,,-99.99,0.000000,,2013-03-29 12:12:00,
2013-03-29 06:43:00,41.0,25.0,-100.00,NNW,338,3.0,8.0,52,0.00,,,-99.99,0.000000,,2013-03-29 12:43:00,
2013-03-29 06:53:00,41.0,25.0,-100.00,NNW,338,3.0,8.0,52,0.00,,,-99.99,0.000000,,2013-03-29 12:53:00,
2013-03-29 07:03:00,41.0,25.0,-100.00,NNW,338,3.0,8.0,52,0.00,,,-99.99,0.000000,,2013-03-29 13:03:00,
2013-03-29 07:12:00,41.0,25.0,-100.00,NNW,338,3.0,8.0,52,0.00,,,-99.99,0.000000,,2013-03-29 13:12:00,
2013-03-29 07:43:00,41.0,27.0,-100.00,NW,322,3.0,6.0,57,0.00,,,-99.99,15.000000,,2013-03-29 13:43:00,
2013-03-29 07:53:00,41.0,27.0,-100.00,NW,322,3.0,6.0,57,0.00,,,-99.99,15.000000,,2013-03-29 13:53:00,
2013-03-29 08:03:00,41.0,27.0,-100.00,NW,322,3.0,6.0,57,0.00,,,-99.99,15.000000,,2013-03-29 14:03:00,
2013-03-29 08:12:00,41.0,27.0,-100.00,NW,322,3.0,6.0,57,0.00,,,-99.99,15.000000,,2013-03-29 14:12:00,
2013-03-29 08:42:00,47.0,30.0,-100.00,South,180,1.0,6.0,52,0.00,,,-99.99,125.000000,,2013-03-29 14:42:00,
2013-03-29 08:53:00,47.0,30.0,-100.00,South,180,1.0,6.0,52,0.00,,,-99.99,125.000000,,2013-03-29 14:53:00,
2013-03-29 09:02:00,47.0,30.0,-100.00,South,180,1.0,6.0,52,0.00,,,-99.99,125.000000,,2013-03-29 15:02:00,
2013-03-29 09:12:00,47.0,30.0,-100.00,South,180,1.0,6.0,52,0.00,,,-99.99,125.000000,,2013-03-29 15:12:00,
2013-03-29 09:43:00,55.0,32.0,-100.00,South,184,2.0,4.0,42,0.00,,,-99.99,268.000000,,2013-03-29 15:43:00,
2013-03-29 09:53:00,55.0,32.0,-100.00,South,184,2.0,4.0,42,0.00,,,-99.99,268.000000,,2013-03-29 15:53:00,
2013-03-29 10:03:00,55.0,32.0,-100.00,South,184,2.0,4.0,42,0.00,,,-99.99,268.000000,,2013-03-29 16:03:00,
2013-03-29 10:13:00,55.0,32.0,-100.00,South,184,2.0,4.0,42,0.00,,,-99.99,268.000000,,2013-03-29 16:13:00,
2013-03-29 10:43:00,61.0,32.0,-100.00,SE,129,4.0,7.0,33,0.00,,,-99.99,530.000000,,2013-03-29 16:43:00,
2013-03-29 10:53:00,61.0,32.0,-100.00,SE,129,4.0,7.0,33,0.00,,,-99.99,530.000000,,2013-03-29 16:53:00,
2013-03-29 11:03:00,61.0,32.0,-100.00,SE,129,4.0,7.0,33,0.00,,,-99.99,530.000000,,2013-03-29 17:03:00,
2013-03-29 11:12:00,61.0,32.0,-100.00,SE,129,4.0,7.0,33,0.00,,,-99.99,530.000000,,2013-03-29 17:12:00,
2013-03-29 11:43:00,65.0,24.0,-100.00,South,191,10.0,20.0,21,0.00,,,-99.99,661.000000,,2013-03-29 17:43:00,
2013-03-29 11:53:00,65.0,24.0,-100.00,South,191,10.0,20.0,21,0.00,,,-99.99,661.000000,,2013-03-29 17:53:00,
2013-03-29 12:02:00,65.0,24.0,-100.00,South,191,10.0,20.0,21,0.00,,,-99.99,661.000000,,2013-03-29 18:02:00,
2013-03-29 12:12:00,65.0,24.0,-100.00,South,191,10.0,20.0,21,0.00,,,-99.99,661.000000,,2013-03-29 18:12:00,
2013-03-29 12:43:00,67.0,25.0,-100.00,SSW,193,8.0,22.0,20,0.00,,,0.00,786.000000,,2013-03-29 18:43:00,
2013-03-29 12:53:00,67.0,25.0,-100.00,SSW,193,8.0,22.0,20,0.00,,,0.00,786.000000,,2013-03-29 18:53:00,
2013-03-29 13:02:00,67.0,25.0,-100.00,SSW,193,8.0,22.0,20,0.00,,,0.00,786.000000,,2013-03-29 19:02:00,
2013-03-29 13:12:00,67.0,25.0,-100.00,SSW,193,8.0,22.0,20,0.00,,,0.00,786.000000,,2013-03-29 19:12:00,
2013-03-29 13:43:00,65.0,25.0,-100.00,WSW,243,9.0,18.0,22,0.00,,,0.00,466.000000,,2013-03-29 19:43:00,
2013-03-29 13:53:00,65.0,25.0,-100.00,WSW,243,9.0,18.0,22,0.00,,,0.00,466.000000,,2013-03-29 19:53:00,
2013-03-29 14:02:00,65.0,25.0,-100.00,WSW,243,9.0,18.0,22,0.00,,,0.00,466.000000,,2013-03-29 20:02:00,
2013-03-29 14:12:00,65.0,25.0,-100.00,WSW,243,9.0,18.0,22,0.00,,,0.00,466.000000,,2013-03-29 20:12:00,
2013-03-29 14:42:00,62.0,27.0,-100.00,North,8,16.0,23.0,26,0.00,,,0.00,332.000000,,2013-03-29 20:42:00,
2013-03-29 14:52:00,62.0,27.0,-100.00,North,8,16.0,23.0,26,0.00,,,0.00,332.000000,,2013-03-29 20:52:00,
2013-03-29 15:02:00,62.0,27.0,-100.00,North,8,16.0,23.0,26,0.00,,,0.00,332.000000,,2013-03-29 21:02:00,
2013-03-29 15:12:00,62.0,27.0,-100.00,North,8,16.0,23.0,26,0.00,,,0.00,332.000000,,2013-03-29 21:12:00,
2013-03-29 15:43:00,65.0,27.0,-100.00,NNW,333,14.0,24.0,24,0.00,,,0.00,459.000000,,2013-03-29 21:43:00,
2013-03-29 15:53:00,65.0,27.0,-100.00,NNW,333,14.0,24.0,24,0.00,,,0.00,459.000000,,2013-03-29 21:53:00,
2013-03-29 16:03:00,65.0,27.0,-100.00,NNW,333,14.0,24.0,24,0.00,,,0.00,459.000000,,2013-03-29 22:03:00,
2013-03-29 16:12:00,65.0,27.0,-100.00,NNW,333,14.0,24.0,24,0.00,,,0.00,459.000000,,2013-03-29 22:12:00,
2013-03-29 16:43:00,65.0,26.0,-100.00,NNW,339,7.0,19.0,23,0.00,,,0.00,413.000000,,2013-03-29 22:43:00,
2013-03-29 16:54:00,65.0,26.0,-100.00,NNW,339,7.0,19.0,23,0.00,,,0.00,413.000000,,2013-03-29 22:54:00,
2013-03-29 17:03:00,65.0,26.0,-100.00,NNW,339,7.0,19.0,23,0.00,,,0.00,413.000000,,2013-03-29 23:03:00,
2013-03-29 17:12:00,65.0,26.0,-100.00,NNW,339,7.0,19.0,23,0.00,,,0.00,413.000000,,2013-03-29 23:12:00,
2013-03-29 17:43:00,65.0,20.0,-100.00,NW,305,9.0,19.0,18,0.00,,,0.00,383.000000,,2013-03-29 23:43:00,
2013-03-29 17:52:00,65.0,20.0,-100.00,NW,305,9.0,19.0,18,0.00,,,0.00,383.000000,,2013-03-29 23:52:00,
2013-03-29 18:03:00,65.0,20.0,-100.00,NW,305,9.0,19.0,18,0.00,,,0.00,383.000000,,2013-03-30 00:03:00,
2013-03-29 18:12:00,65.0,20.0,-100.00,NW,305,9.0,19.0,18,0.00,,,0.00,383.000000,,2013-03-30 00:12:00,
2013-03-29 18:43:00,63.0,24.0,-100.00,NNE,27,6.0,13.0,22,0.00,,,0.00,204.000000,,2013-03-30 00:43:00,
2013-03-29 18:53:00,63.0,24.0,-100.00,NNE,27,6.0,13.0,22,0.00,,,0.00,204.000000,,2013-03-30 00:53:00,
2013-03-29 19:02:00,63.0,24.0,-100.00,NNE,27,6.0,13.0,22,0.00,,,0.00,204.000000,,2013-03-30 01:02:00,
2013-03-29 19:12:00,63.0,24.0,-100.00,NNE,27,6.0,13.0,22,0.00,,,0.00,204.000000,,2013-03-30 01:12:00,
2013-03-29 19:43:00,57.0,23.0,-100.00,NNE,15,5.0,11.0,27,0.00,,,0.00,52.000000,,2013-03-30 01:43:00,
2013-03-29 19:53:00,57.0,23.0,-100.00,NNE,15,5.0,11.0,27,0.00,,,0.00,52.000000,,2013-03-30 01:53:00,
2013-03-29 20:03:00,57.0,23.0,-100.00,NNE,15,5.0,11.0,27,0.00,,,0.00,52.000000,,2013-03-30 02:03:00,
2013-03-29 20:12:00,57.0,23.0,-100.00,NNE,15,5.0,11.0,27,0.00,,,0.00,52.000000,,2013-03-30 02:12:00,
2013-03-29 20:43:00,51.0,27.0,-100.00,NNW,334,6.0,11.0,39,0.00,,,0.00,0.000000,,2013-03-30 02:43:00,
2013-03-29 20:53:00,51.0,27.0,-100.00,NNW,334,6.0,11.0,39,0.00,,,0.00,0.000000,,2013-03-30 02:53:00,
2013-03-29 21:02:00,51.0,27.0,-100.00,NNW,334,6.0,11.0,39,0.00,,,0.00,0.000000,,2013-03-30 03:02:00,
2013-03-29 21:12:00,51.0,27.0,-100.00,NNW,334,6.0,11.0,39,0.00,,,0.00,0.000000,,2013-03-30 03:12:00,
2013-03-29 21:43:00,53.0,29.0,-100.00,NNW,346,9.0,19.0,39,0.00,,,0.00,0.000000,,2013-03-30 03:43:00,
2013-03-29 21:53:00,53.0,29.0,-100.00,NNW,346,9.0,19.0,39,0.00,,,0.00,0.000000,,2013-03-30 03:53:00,
2013-03-29 22:02:00,53.0,29.0,-100.00,NNW,346,9.0,19.0,39,0.00,,,0.00,0.000000,,2013-03-30 04:02:00,
2013-03-29 22:12:00,53.0,29.0,-100.00,NNW,346,9.0,19.0,39,0.00,,,0.00,0.000000,,2013-03-30 04:12:00,
2013-03-29 22:43:00,50.0,30.0,-100.00,North,3,2.0,8.0,46,0.00,,,0.00,0.000000,,2013-03-30 04:43:00,
2013-03-29 22:53:00,50.0,30.0,-100.00,North,3,2.0,8.0,46,0.00,,,0.00,0.000000,,2013-03-30 04:53:00,
2013-03-29 23:02:00,50.0,30.0,-100.00,North,3,2.0,8.0,46,0.00,,,0.00,0.000000,,2013-03-30 05:02:00,
2013-03-29 23:12:00,50.0,30.0,-100.00,North,3,2.0,8.0,46,0.00,,,0.00,0.000000,,2013-03-30 05:12:00,
2013-03-29 23:42:00,51.0,31.0,-100.00,NW,318,8.0,13.0,46,0.00,,,0.00,0.000000,,2013-03-30 05:42:00,
2013-03-29 23:52:00,51.0,31.0,-100.00,NW,318,8.0,13.0,46,0.00,,,0.00,0.000000,,2013-03-30 05:52:00,